createdAt,value
2022-10-21T00:00:56.928Z,17.90
2022-10-21T00:07:44.961Z,13.68
2022-10-21T00:14:30.371Z,11.38
2022-10-21T00:21:19.339Z,10.53
2022-10-21T00:28:07.393Z,11.45
2022-10-21T00:34:52.748Z,9.82
2022-10-21T00:41:38.087Z,10.90
2022-10-21T00:48:34.458Z,9.98
2022-10-21T00:55:19.983Z,10.77
2022-10-21T01:02:06.461Z,11.00
2022-10-21T01:08:55.185Z,10.05
2022-10-21T01:15:47.250Z,10.75
2022-10-21T01:22:59.364Z,10.75
2022-10-21T01:30:11.526Z,10.82
2022-10-21T01:37:07.880Z,10.80
2022-10-21T01:44:02.845Z,10.15
2022-10-21T01:50:53.816Z,10.40
2022-10-21T01:57:47.185Z,10.55
2022-10-21T02:04:34.569Z,10.52
2022-10-21T02:11:20.829Z,9.77
2022-10-21T02:25:00.693Z,9.85
2022-10-21T02:32:10.898Z,9.65
2022-10-21T02:39:06.256Z,10.55
2022-10-21T03:00:13.866Z,10.15
2022-10-21T03:06:59.243Z,10.30
2022-10-21T03:13:44.589Z,10.70
2022-10-21T03:20:32.565Z,10.13
2022-10-21T03:27:17.913Z,11.32
2022-10-21T03:34:03.309Z,11.27
2022-10-21T03:40:52.605Z,10.35
2022-10-21T03:47:37.995Z,10.13
2022-10-21T03:54:23.400Z,9.77
2022-10-21T04:01:15.473Z,9.57
2022-10-21T04:08:01.077Z,9.57
2022-10-21T04:14:46.546Z,9.83
2022-10-21T04:21:34.489Z,27.53
2022-10-21T04:28:20.001Z,11.13
2022-10-21T04:35:07.622Z,10.97
2022-10-21T04:41:56.056Z,10.40
2022-10-21T04:48:41.534Z,10.90
2022-10-21T04:55:26.913Z,11.00
2022-10-21T05:02:15.197Z,10.57
2022-10-21T05:09:00.890Z,12.07
2022-10-21T05:15:46.281Z,12.07
2022-10-21T05:22:34.260Z,11.48
2022-10-21T05:29:19.849Z,13.43
2022-10-21T05:36:08.731Z,11.13
2022-10-21T05:42:56.672Z,10.88
2022-10-21T05:49:42.057Z,10.00
2022-10-21T05:56:27.446Z,10.67
2022-10-21T06:03:15.386Z,10.70
2022-10-21T06:10:00.744Z,9.77
2022-10-21T06:16:46.263Z,10.37
2022-10-21T06:23:34.297Z,9.60
2022-10-21T06:30:19.825Z,9.65
2022-10-21T06:37:05.186Z,9.80
2022-10-21T06:43:53.125Z,9.75
2022-10-21T06:50:40.420Z,10.93
2022-10-21T06:57:27.739Z,11.40
2022-10-21T07:04:15.752Z,13.02
2022-10-21T07:11:04.944Z,12.23
2022-10-21T07:17:50.277Z,11.52
2022-10-21T07:24:38.894Z,11.85
2022-10-21T07:31:25.024Z,10.85
2022-10-21T07:38:12.293Z,10.48
2022-10-21T07:45:02.245Z,9.07
2022-10-21T07:51:50.222Z,9.55
2022-10-21T07:58:36.255Z,9.05
2022-10-21T08:05:24.293Z,10.00
2022-10-21T08:12:12.932Z,10.20
2022-10-21T08:19:03.491Z,9.30
2022-10-21T08:25:58.670Z,9.68
2022-10-21T08:32:44.095Z,9.27
2022-10-21T08:39:29.905Z,10.55
2022-10-21T08:46:24.507Z,10.00
2022-10-21T08:53:17.796Z,10.05
2022-10-21T09:00:03.293Z,9.40
2022-10-21T09:07:00.774Z,8.95
2022-10-21T09:14:04.409Z,9.55
2022-10-21T09:21:03.188Z,9.63
2022-10-21T09:27:56.800Z,9.90
2022-10-21T09:34:50.635Z,9.77
2022-10-21T09:41:41.858Z,9.45
2022-10-21T09:48:55.056Z,9.52
2022-10-21T09:55:52.549Z,9.15
2022-10-21T10:02:43.269Z,9.50
2022-10-21T10:09:34.178Z,9.05
2022-10-21T10:16:28.473Z,6.45
2022-10-21T10:23:22.025Z,6.50
2022-10-21T10:30:17.484Z,6.50
2022-10-21T10:37:07.720Z,5.88
2022-10-21T10:43:56.303Z,5.60
2022-10-21T10:50:50.792Z,5.53
2022-10-21T10:57:45.922Z,4.95
2022-10-21T11:04:45.481Z,5.00
2022-10-21T11:11:40.089Z,5.38
2022-10-21T11:18:35.674Z,6.43
2022-10-21T11:25:27.976Z,7.03
2022-10-21T11:32:30.816Z,5.95
2022-10-21T11:39:45.790Z,5.57
2022-10-21T11:46:42.217Z,5.78
2022-10-21T11:54:02.461Z,6.30
2022-10-21T12:01:02.202Z,6.15
2022-10-21T12:08:08.033Z,5.32
2022-10-21T12:15:02.385Z,5.73
2022-10-21T12:21:49.266Z,5.40
2022-10-21T12:28:41.796Z,5.40
2022-10-21T12:35:50.541Z,4.70
2022-10-21T12:42:37.429Z,4.82
2022-10-21T12:49:27.560Z,4.78
2022-10-21T12:56:29.246Z,4.68
2022-10-21T13:03:16.408Z,5.93
2022-10-21T13:10:28.621Z,4.65
2022-10-21T13:17:49.048Z,5.10
2022-10-21T13:24:36.086Z,5.10
2022-10-21T13:31:24.817Z,4.78
2022-10-21T13:38:25.145Z,5.18
2022-10-21T13:45:27.162Z,4.60
2022-10-21T13:52:14.296Z,4.85
2022-10-21T13:59:04.858Z,5.22
2022-10-21T14:05:53.350Z,5.15
2022-10-21T14:12:42.952Z,5.10
2022-10-21T14:19:35.384Z,5.50
2022-10-21T14:26:21.515Z,5.50
2022-10-21T14:33:15.113Z,5.45
2022-10-21T14:40:26.443Z,6.03
2022-10-21T14:47:21.341Z,5.65
2022-10-21T14:54:09.210Z,6.30
2022-10-21T15:01:04.888Z,6.50
2022-10-21T15:07:50.262Z,6.60
2022-10-21T15:14:35.667Z,6.53
2022-10-21T15:21:37.486Z,6.63
2022-10-21T15:28:23.488Z,6.10
2022-10-21T15:35:16.910Z,6.07
2022-10-21T15:42:05.337Z,5.93
2022-10-21T15:48:50.893Z,6.00
2022-10-21T15:55:38.086Z,6.03
2022-10-21T16:02:26.027Z,5.65
2022-10-21T16:09:14.698Z,5.80
2022-10-21T16:16:05.056Z,5.60
2022-10-21T16:22:53.169Z,5.10
2022-10-21T16:29:38.538Z,5.85
2022-10-21T16:36:27.662Z,5.30
2022-10-21T16:43:16.345Z,5.32
2022-10-21T16:50:05.188Z,5.20
2022-10-21T16:56:53.354Z,5.78
2022-10-21T17:03:43.138Z,5.32
2022-10-21T17:10:28.508Z,5.30
2022-10-21T17:17:15.094Z,5.40
2022-10-21T17:24:04.734Z,5.10
2022-10-21T17:30:50.957Z,5.45
2022-10-21T17:44:24.908Z,5.47
2022-10-21T17:51:11.453Z,5.68
2022-10-21T17:57:56.910Z,5.25
2022-10-21T18:04:45.288Z,5.23
2022-10-21T18:11:31.221Z,5.50
2022-10-21T18:18:16.625Z,5.05
2022-10-21T18:25:04.792Z,5.90
2022-10-21T18:31:50.886Z,5.80
2022-10-21T18:38:36.238Z,5.20
2022-10-21T18:45:24.357Z,5.38
2022-10-21T18:52:11.479Z,5.63
2022-10-21T18:58:58.954Z,5.28
2022-10-21T19:05:46.933Z,5.32
2022-10-21T19:12:32.279Z,4.78
2022-10-21T19:19:19.053Z,5.83
2022-10-21T19:26:09.332Z,4.55
2022-10-21T19:32:54.935Z,4.90
2022-10-21T19:39:40.355Z,4.97
2022-10-21T19:46:30.456Z,4.80
2022-10-21T19:53:16.001Z,5.03
2022-10-21T20:00:04.500Z,6.53
2022-10-21T20:07:00.157Z,5.10
2022-10-21T20:13:47.839Z,5.35
2022-10-21T20:20:33.184Z,5.03
2022-10-21T20:27:21.279Z,4.90
2022-10-21T20:34:06.928Z,5.10
2022-10-21T20:41:02.390Z,4.90
2022-10-21T20:47:50.374Z,4.97
2022-10-21T20:54:35.920Z,4.60
2022-10-21T21:01:25.737Z,5.40
2022-10-21T21:08:14.115Z,5.68
2022-10-21T21:14:59.476Z,5.93
2022-10-21T21:21:44.881Z,5.73
2022-10-21T21:28:35.560Z,5.03
2022-10-21T21:35:21.739Z,4.80
2022-10-21T21:42:08.276Z,4.50
2022-10-21T21:49:04.747Z,4.47
2022-10-21T21:55:51.081Z,4.72
2022-10-21T22:02:36.469Z,4.93
2022-10-21T22:09:24.376Z,4.78
2022-10-21T22:16:13.317Z,5.65
2022-10-21T22:22:58.707Z,5.75
2022-10-21T22:29:46.654Z,6.03
2022-10-21T22:36:32.462Z,5.70
2022-10-21T22:43:17.813Z,5.70
2022-10-21T22:50:06.128Z,5.53
2022-10-21T22:56:51.509Z,6.20
2022-10-21T23:03:36.904Z,6.18
2022-10-21T23:10:25.261Z,5.43
2022-10-21T23:17:10.609Z,5.28
2022-10-21T23:23:56.064Z,4.72
2022-10-21T23:30:44.349Z,5.30
2022-10-21T23:37:29.868Z,4.50
2022-10-21T23:44:15.273Z,4.67
2022-10-21T23:51:04.281Z,4.63
2022-10-21T23:57:49.833Z,4.30
